This is the latest recevied weather packets stored in our database for station/object BAGASKAR. If no packets are shown the sender has not sent any weather packets the latest 10 day(s).
| Time | Temp. | Humidity | Pressure | Rain* | Wind** | Luminosity | Snow |
|---|---|---|---|---|---|---|---|
| 1778093243 | 6.11° C | 95% | 1014.1 hPa | - | - | - | - |
| 1778092044 | 6.11° C | 95% | 1014 hPa | - | - | - | - |
| 1778090843 | 6.67° C | 92% | 1014.1 hPa | - | - | - | - |
| 1778089643 | 6.67° C | 83% | 1014.1 hPa | - | - | - | - |
| 1778088442 | 7.22° C | 77% | 1014.1 hPa | - | - | - | - |
| 1778087243 | 7.78° C | 75% | 1014.1 hPa | - | - | - | - |
| 1778086042 | 8.33° C | 69% | 1014 hPa | - | - | - | - |
| 1778084843 | 8.33° C | 65% | 1014 hPa | - | - | - | - |
| 1778083642 | 8.89° C | 65% | 1014 hPa | - | - | - | - |
| 1778081243 | 8.89° C | 68% | 1014 hPa | - | - | - | - |
| 1778080042 | 8.33° C | 70% | 1014.1 hPa | - | - | - | - |
| 1778078842 | 7.78° C | 74% | 1014.2 hPa | - | - | - | - |
| 1778077641 | 7.78° C | 72% | 1014.2 hPa | - | - | - | - |
| 1778076441 | 8.33° C | 66% | 1014.4 hPa | - | - | - | - |
| 1778074042 | 8.33° C | 66% | 1014.3 hPa | - | - | - | - |
| 1778072841 | 8.33° C | 61% | 1014.3 hPa | - | - | - | - |
| 1778071641 | 8.89° C | 58% | 1014.2 hPa | - | - | - | - |
| 1778070441 | 8.89° C | 59% | 1014.4 hPa | - | - | - | - |
| 1778069241 | 8.33° C | 65% | 1014.5 hPa | - | - | - | - |
| 1778068042 | 8.89° C | 62% | 1014.4 hPa | - | - | - | - |
| 1778066842 | 7.78° C | 72% | 1014.4 hPa | - | - | - | - |
| 1778065641 | 7.22° C | 87% | 1014.5 hPa | - | - | - | - |
| 1778064442 | 7.78° C | 81% | 1014.4 hPa | - | - | - | - |
| 1778063242 | 7.78° C | 80% | 1014.3 hPa | - | - | - | - |
| 1778062042 | 7.78° C | 81% | 1014.1 hPa | - | - | - | - |
* Rain since midnight (hover to see other rain measurements)
** Current wind speed in m/s (hover to see current wind gust speed)